Cape Lambert — V7TC9 — position and weather

sailwx.info

Track history (hours):
 
Tides and Currents Weather Stations Pressure Air Temp Water Temp Dewpoint Dewpoint Depression Visibility Wind Speed Wind Dir Waves Ship Positions

Cape Lambert

Last reported at 2017-Apr-01 11:14 UTC. Time now 2017-Apr-27 13:01 UTC.
Position S 02°09' W 044°10'.
Warning: this ship's position is 26 days out of date.

Length 290 m; draft 8.6 m.

Type: Cargo ship. MMSI: 538003781.

Date/timePositionNaut miles runAvg speedWind from/ knotsBaromVisibWave heightAir tempDewpointWater temp
2017-Apr-01 11:14S 02°09' W 044°10'2 7.9
2017-Apr-01 11:01S 02°11' W 044°11'4 8.3
2017-Apr-01 10:31S 02°14' W 044°13'4 8.0
2017-Apr-01 10:01S 02°18' W 044°15'4 7.8
2017-Apr-01 09:31S 02°21' W 044°17'4 7.7
2017-Apr-01 09:00S 02°24' W 044°19'5 9.2
2017-Apr-01 08:31S 02°28' W 044°22'4 7.5
2017-Apr-01 08:01S 02°32' W 044°23'2 4.2
2017-Apr-01 07:27S 02°34' W 044°23'0 0.0
2017-Apr-01 07:00S 02°34' W 044°23'0 0.0
2017-Apr-01 06:27S 02°34' W 044°23'0 0.0
2017-Apr-01 05:57S 02°34' W 044°23'0 0.0
2017-Apr-01 05:27S 02°34' W 044°23'0 0.0
2017-Apr-01 05:00S 02°34' W 044°23'0 0.0
2017-Apr-01 04:30S 02°34' W 044°23'0 0.0
2017-Apr-01 04:00S 02°34' W 044°23'0 0.0
2017-Apr-01 03:30S 02°34' W 044°23'0 0.0
2017-Apr-01 03:00S 02°34' W 044°23'0 0.0
2017-Apr-01 02:30S 02°34' W 044°23'0 0.0
2017-Apr-01 02:00S 02°34' W 044°23'0 0.0
2017-Apr-01 01:30S 02°34' W 044°23'0 0.0
2017-Apr-01 01:00S 02°34' W 044°23'0 0.0
2017-Apr-01 00:30S 02°34' W 044°23'0 0.0
2017-Apr-01 00:00S 02°34' W 044°23'0 0.0
2017-Mar-31 23:30S 02°34' W 044°23'0 0.0
2017-Mar-31 23:00S 02°34' W 044°23'0 0.0
2017-Mar-31 22:30S 02°34' W 044°23'0 0.0
2017-Mar-31 21:54S 02°34' W 044°23'0 0.0
2017-Mar-31 20:48S 02°34' W 044°23'0 0.0
2017-Mar-31 20:30S 02°34' W 044°23'0 0.0
2017-Mar-31 19:51S 02°34' W 044°23'0 0.0
2017-Mar-31 19:27S 02°34' W 044°23'0 0.0
2017-Mar-31 18:30S 02°34' W 044°23'0 0.0
2017-Mar-31 18:00S 02°34' W 044°23'0 0.0
2017-Mar-31 17:30S 02°34' W 044°23'0 0.0
2017-Mar-31 17:00S 02°34' W 044°23'0 0.0
2017-Mar-31 16:30S 02°34' W 044°23'0 0.0
2017-Mar-31 16:00S 02°34' W 044°23'0 0.0
2017-Mar-31 15:30S 02°34' W 044°23'0 0.0
2017-Mar-31 15:00S 02°34' W 044°23'0 0.0
2017-Mar-31 14:00S 02°34' W 044°23'0 0.0
2017-Mar-31 13:30S 02°34' W 044°23'0 0.0
2017-Mar-31 13:00S 02°34' W 044°23'0 0.0
2017-Mar-31 12:30S 02°34' W 044°23'0 0.0
2017-Mar-31 11:58S 02°34' W 044°23'0 0.0
2017-Mar-31 11:30S 02°34' W 044°23'0 0.0
2017-Mar-31 11:00S 02°34' W 044°23'0 0.0
2017-Mar-31 10:28S 02°34' W 044°23'0 0.0
2017-Mar-31 10:01S 02°34' W 044°23'0 0.0
2017-Mar-31 09:30S 02°34' W 044°23'0 0.0
2017-Mar-31 09:00S 02°34' W 044°23'0 0.0
2017-Mar-31 08:28S 02°34' W 044°23'0 0.0
2017-Mar-31 08:00S 02°34' W 044°23'0 0.0
2017-Mar-31 07:31S 02°34' W 044°23'0 0.5
2017-Mar-31 07:01S 02°34' W 044°23'1 2.7
2017-Mar-31 06:31S 02°33' W 044°23'5 9.9
2017-Mar-31 06:00S 02°28' W 044°22'4 8.0
2017-Mar-31 05:30S 02°24' W 044°19'2 3.6
2017-Mar-31 05:00S 02°23' W 044°18'1 2.2
2017-Mar-31 04:33S 02°23' W 044°17'0 0.0
2017-Mar-31 03:32S 02°23' W 044°17'0 0.1
2017-Mar-31 02:33S 02°23' W 044°17'0 0.2
2017-Mar-31 01:32S 02°23' W 044°17'0 0.2
2017-Mar-31 00:33S 02°23' W 044°17'0 0.0
2017-Mar-30 23:32S 02°23' W 044°17'0 0.0
2017-Mar-30 22:32S 02°23' W 044°17'0 0.0
2017-Mar-30 21:32S 02°23' W 044°17'0 0.0
2017-Mar-30 20:32S 02°23' W 044°17'0 0.1
2017-Mar-30 19:32S 02°23' W 044°17'0 0.2
2017-Mar-30 18:32S 02°23' W 044°17'0 0.1
2017-Mar-30 17:32S 02°23' W 044°17'0 0.0
2017-Mar-30 16:32S 02°23' W 044°17'0 0.0
2017-Mar-30 15:33S 02°23' W 044°17'0 0.1
2017-Mar-30 09:32S 02°23' W 044°17'0 0.0
2017-Mar-30 08:32S 02°23' W 044°17'0 0.0
2017-Mar-30 07:32S 02°23' W 044°17'0 0.2
2017-Mar-30 06:32S 02°23' W 044°17'0 0.3
2017-Mar-30 05:32S 02°23' W 044°17'0 0.0
2017-Mar-30 04:32S 02°23' W 044°17'0 0.0
2017-Mar-30 03:32S 02°23' W 044°17'0 0.0
2017-Mar-30 02:32S 02°23' W 044°17'0 0.0
2017-Mar-30 01:32S 02°23' W 044°17'0 0.3
2017-Mar-30 00:32S 02°23' W 044°17'0 0.0
2017-Mar-29 23:32S 02°23' W 044°17'0 0.0
2017-Mar-29 22:32S 02°23' W 044°17'0 0.0
2017-Mar-29 21:32S 02°23' W 044°17'0 0.0
2017-Mar-29 20:32S 02°23' W 044°17'0 0.0
2017-Mar-29 19:32S 02°23' W 044°17'0 0.1
2017-Mar-29 18:32S 02°23' W 044°17'0 0.3
2017-Mar-29 17:32S 02°23' W 044°17'0 0.0
2017-Mar-29 16:32S 02°23' W 044°17'0 0.0
2017-Mar-29 15:32S 02°23' W 044°17'0 0.0
2017-Mar-29 14:32S 02°23' W 044°17'0 0.0
2017-Mar-29 13:32S 02°23' W 044°17'0 0.2
2017-Mar-29 12:32S 02°23' W 044°17'0 0.2
2017-Mar-29 11:32S 02°23' W 044°17'0 0.0
2017-Mar-29 10:24S 02°23' W 044°17'0 0.0
2017-Mar-29 09:24S 02°23' W 044°17'0 0.0
2017-Mar-29 08:32S 02°23' W 044°17'0 0.0
2017-Mar-29 07:32S 02°23' W 044°17'0 0.0
2017-Mar-29 06:32S 02°23' W 044°17'0 0.3
2017-Mar-29 05:32S 02°23' W 044°17'0 0.1
2017-Mar-29 04:32S 02°23' W 044°17'0 0.0
2017-Mar-29 03:32S 02°23' W 044°17'0 0.0
2017-Mar-29 02:32S 02°23' W 044°17'0 0.0
2017-Mar-29 01:32S 02°23' W 044°17'0 0.3
2017-Mar-29 00:32S 02°23' W 044°17'0 0.1
2017-Mar-28 23:32S 02°23' W 044°17'0 0.0
2017-Mar-28 22:32S 02°23' W 044°17'0 0.0
2017-Mar-28 21:32S 02°23' W 044°17'0 0.0
2017-Mar-28 20:32S 02°23' W 044°17'0 0.0
2017-Mar-28 19:32S 02°23' W 044°17'0 0.0
2017-Mar-28 18:32S 02°23' W 044°17'0 0.1
2017-Mar-28 17:32S 02°23' W 044°17'0 0.3
2017-Mar-28 16:32S 02°23' W 044°17'0 0.0
2017-Mar-28 15:32S 02°23' W 044°17'0 0.0
2017-Mar-28 14:32S 02°23' W 044°17'0 0.0
2017-Mar-28 13:32S 02°23' W 044°17'0 0.0
2017-Mar-28 12:32S 02°23' W 044°17'0 0.3
2017-Mar-28 11:32S 02°23' W 044°17'0 0.1
2017-Mar-28 10:32S 02°23' W 044°17'0 0.0
2017-Mar-28 09:32S 02°23' W 044°17'0 0.0
2017-Mar-28 08:32S 02°23' W 044°17'0 0.0
2017-Mar-28 07:32S 02°23' W 044°17'0 0.0
2017-Mar-28 06:29S 02°23' W 044°17'0 0.0
2017-Mar-28 05:32S 02°23' W 044°17'0 0.3
2017-Mar-28 04:32S 02°23' W 044°17'0 0.0
2017-Mar-28 03:32S 02°23' W 044°17'0 0.0
2017-Mar-28 02:32S 02°23' W 044°17'0 0.0
2017-Mar-28 01:32S 02°23' W 044°17'0 0.0
2017-Mar-28 00:32S 02°23' W 044°17'0 0.2
2017-Mar-27 23:32S 02°23' W 044°17'0 0.2
2017-Mar-27 22:32S 02°23' W 044°17'0 0.0
2017-Mar-27 21:32S 02°23' W 044°17'0 0.0
2017-Mar-27 20:32S 02°23' W 044°17'0 0.0
2017-Mar-27 19:32S 02°23' W 044°17'0 0.0
2017-Mar-27 18:32S 02°23' W 044°17'0 0.1
2017-Mar-27 17:32S 02°23' W 044°17'0 0.2
2017-Mar-27 16:32S 02°23' W 044°17'0 0.1
2017-Mar-27 15:32S 02°23' W 044°17'0 0.0
2017-Mar-27 14:32S 02°23' W 044°17'0 0.0
2017-Mar-27 13:32S 02°23' W 044°17'0 0.0
2017-Mar-27 12:32S 02°23' W 044°17'0 0.1
2017-Mar-27 11:32S 02°23' W 044°17'0 0.3
2017-Mar-27 10:32S 02°23' W 044°17'0 0.0
2017-Mar-27 09:32S 02°23' W 044°17'0 0.0
2017-Mar-27 08:32S 02°23' W 044°17'0 0.0
2017-Mar-27 07:32S 02°23' W 044°17'0 0.0
2017-Mar-27 06:32S 02°23' W 044°17'0 0.0
2017-Mar-27 05:32S 02°23' W 044°17'0 0.1
2017-Mar-27 04:32S 02°23' W 044°17'0 0.3
2017-Mar-27 03:32S 02°23' W 044°17'0 0.0
2017-Mar-27 02:32S 02°23' W 044°17'0 0.0
2017-Mar-27 01:32S 02°23' W 044°17'0 0.0
2017-Mar-27 00:32S 02°23' W 044°17'0 0.0
2017-Mar-26 23:32S 02°23' W 044°17'0 0.3
2017-Mar-26 22:26S 02°23' W 044°17'0 0.1
2017-Mar-26 21:32S 02°23' W 044°17'0 0.0
2017-Mar-26 20:32S 02°23' W 044°17'0 0.0
2017-Mar-26 19:32S 02°23' W 044°17'0 0.0
2017-Mar-26 18:32S 02°23' W 044°17'0 0.0
2017-Mar-26 17:29S 02°23' W 044°17'0 0.0
2017-Mar-26 16:32S 02°23' W 044°17'0 0.3
2017-Mar-26 15:32S 02°23' W 044°17'0 0.1
2017-Mar-26 14:32S 02°23' W 044°17'0 0.0
2017-Mar-26 13:32S 02°23' W 044°17'0 0.0
2017-Mar-26 12:32S 02°23' W 044°17'0 0.0
2017-Mar-26 11:32S 02°23' W 044°17'0 0.3
2017-Mar-26 10:32S 02°23' W 044°17'0 0.1
2017-Mar-26 09:32S 02°23' W 044°17'0 0.0
2017-Mar-26 08:32S 02°23' W 044°17'0 0.0
2017-Mar-26 07:33S 02°23' W 044°17'0 0.0
2017-Mar-26 06:32S 02°23' W 044°17'0 0.0
2017-Mar-26 05:32S 02°23' W 044°17'0 0.1
2017-Mar-26 04:32S 02°23' W 044°17'0 0.3
2017-Mar-26 03:32S 02°23' W 044°17'0 0.1
2017-Mar-26 02:32S 02°23' W 044°17'0 0.0
2017-Mar-26 01:32S 02°23' W 044°17'0 0.0
2017-Mar-26 00:32S 02°23' W 044°17'0 0.0
2017-Mar-25 23:32S 02°23' W 044°17'0 0.1
2017-Mar-25 22:32S 02°23' W 044°17'0 0.2
2017-Mar-25 21:32S 02°23' W 044°17'0 0.0
2017-Mar-25 20:32S 02°23' W 044°17'0 0.0
2017-Mar-25 19:32S 02°23' W 044°17'0 0.0
2017-Mar-25 18:32S 02°23' W 044°17'0 0.0
2017-Mar-25 17:32S 02°23' W 044°17'0 0.0
2017-Mar-25 16:32S 02°23' W 044°17'2 2.1
2017-Mar-25 15:33S 02°21' W 044°17'8 7.8
2017-Mar-25 14:33S 02°15' W 044°13'10 9.7
2017-Mar-25 13:33S 02°07' W 044°08'9 9.4
2017-Mar-25 12:33S 02°01' W 044°00'  
Track history (hours):
 
Tides and Currents Weather Stations Pressure Air Temp Water Temp Dewpoint Dewpoint Depression Visibility Wind Speed Wind Dir Waves Ship Positions

Cape Lambert

Last reported at 2017-Apr-01 11:14 UTC. Time now 2017-Apr-27 13:01 UTC.
Position S 02°09' W 044°10'.
Warning: this ship's position is 26 days out of date.

Length 290 m; draft 8.6 m.

Type: Cargo ship. MMSI: 538003781.

Date/timePositionNaut miles runAvg speedWind from/ knotsBaromVisibWave heightAir tempDewpointWater temp
2017-Apr-01 11:14S 02°09' W 044°10'2 7.9
2017-Apr-01 11:01S 02°11' W 044°11'4 8.3
2017-Apr-01 10:31S 02°14' W 044°13'4 8.0
2017-Apr-01 10:01S 02°18' W 044°15'4 7.8
2017-Apr-01 09:31S 02°21' W 044°17'4 7.7
2017-Apr-01 09:00S 02°24' W 044°19'5 9.2
2017-Apr-01 08:31S 02°28' W 044°22'4 7.5
2017-Apr-01 08:01S 02°32' W 044°23'2 4.2
2017-Apr-01 07:27S 02°34' W 044°23'0 0.0
2017-Apr-01 07:00S 02°34' W 044°23'0 0.0
2017-Apr-01 06:27S 02°34' W 044°23'0 0.0
2017-Apr-01 05:57S 02°34' W 044°23'0 0.0
2017-Apr-01 05:27S 02°34' W 044°23'0 0.0
2017-Apr-01 05:00S 02°34' W 044°23'0 0.0
2017-Apr-01 04:30S 02°34' W 044°23'0 0.0
2017-Apr-01 04:00S 02°34' W 044°23'0 0.0
2017-Apr-01 03:30S 02°34' W 044°23'0 0.0
2017-Apr-01 03:00S 02°34' W 044°23'0 0.0
2017-Apr-01 02:30S 02°34' W 044°23'0 0.0
2017-Apr-01 02:00S 02°34' W 044°23'0 0.0
2017-Apr-01 01:30S 02°34' W 044°23'0 0.0
2017-Apr-01 01:00S 02°34' W 044°23'0 0.0
2017-Apr-01 00:30S 02°34' W 044°23'0 0.0
2017-Apr-01 00:00S 02°34' W 044°23'0 0.0
2017-Mar-31 23:30S 02°34' W 044°23'0 0.0
2017-Mar-31 23:00S 02°34' W 044°23'0 0.0
2017-Mar-31 22:30S 02°34' W 044°23'0 0.0
2017-Mar-31 21:54S 02°34' W 044°23'0 0.0
2017-Mar-31 20:48S 02°34' W 044°23'0 0.0
2017-Mar-31 20:30S 02°34' W 044°23'0 0.0
2017-Mar-31 19:51S 02°34' W 044°23'0 0.0
2017-Mar-31 19:27S 02°34' W 044°23'0 0.0
2017-Mar-31 18:30S 02°34' W 044°23'0 0.0
2017-Mar-31 18:00S 02°34' W 044°23'0 0.0
2017-Mar-31 17:30S 02°34' W 044°23'0 0.0
2017-Mar-31 17:00S 02°34' W 044°23'0 0.0
2017-Mar-31 16:30S 02°34' W 044°23'0 0.0
2017-Mar-31 16:00S 02°34' W 044°23'0 0.0
2017-Mar-31 15:30S 02°34' W 044°23'0 0.0
2017-Mar-31 15:00S 02°34' W 044°23'0 0.0
2017-Mar-31 14:00S 02°34' W 044°23'0 0.0
2017-Mar-31 13:30S 02°34' W 044°23'0 0.0
2017-Mar-31 13:00S 02°34' W 044°23'0 0.0
2017-Mar-31 12:30S 02°34' W 044°23'0 0.0
2017-Mar-31 11:58S 02°34' W 044°23'0 0.0
2017-Mar-31 11:30S 02°34' W 044°23'0 0.0
2017-Mar-31 11:00S 02°34' W 044°23'0 0.0
2017-Mar-31 10:28S 02°34' W 044°23'0 0.0
2017-Mar-31 10:01S 02°34' W 044°23'0 0.0
2017-Mar-31 09:30S 02°34' W 044°23'0 0.0
2017-Mar-31 09:00S 02°34' W 044°23'0 0.0
2017-Mar-31 08:28S 02°34' W 044°23'0 0.0
2017-Mar-31 08:00S 02°34' W 044°23'0 0.0
2017-Mar-31 07:31S 02°34' W 044°23'0 0.5
2017-Mar-31 07:01S 02°34' W 044°23'1 2.7
2017-Mar-31 06:31S 02°33' W 044°23'5 9.9
2017-Mar-31 06:00S 02°28' W 044°22'4 8.0
2017-Mar-31 05:30S 02°24' W 044°19'2 3.6
2017-Mar-31 05:00S 02°23' W 044°18'1 2.2
2017-Mar-31 04:33S 02°23' W 044°17'0 0.0
2017-Mar-31 03:32S 02°23' W 044°17'0 0.1
2017-Mar-31 02:33S 02°23' W 044°17'0 0.2
2017-Mar-31 01:32S 02°23' W 044°17'0 0.2
2017-Mar-31 00:33S 02°23' W 044°17'0 0.0
2017-Mar-30 23:32S 02°23' W 044°17'0 0.0
2017-Mar-30 22:32S 02°23' W 044°17'0 0.0
2017-Mar-30 21:32S 02°23' W 044°17'0 0.0
2017-Mar-30 20:32S 02°23' W 044°17'0 0.1
2017-Mar-30 19:32S 02°23' W 044°17'0 0.2
2017-Mar-30 18:32S 02°23' W 044°17'0 0.1
2017-Mar-30 17:32S 02°23' W 044°17'0 0.0
2017-Mar-30 16:32S 02°23' W 044°17'0 0.0
2017-Mar-30 15:33S 02°23' W 044°17'0 0.1
2017-Mar-30 09:32S 02°23' W 044°17'0 0.0
2017-Mar-30 08:32S 02°23' W 044°17'0 0.0
2017-Mar-30 07:32S 02°23' W 044°17'0 0.2
2017-Mar-30 06:32S 02°23' W 044°17'0 0.3
2017-Mar-30 05:32S 02°23' W 044°17'0 0.0
2017-Mar-30 04:32S 02°23' W 044°17'0 0.0
2017-Mar-30 03:32S 02°23' W 044°17'0 0.0
2017-Mar-30 02:32S 02°23' W 044°17'0 0.0
2017-Mar-30 01:32S 02°23' W 044°17'0 0.3
2017-Mar-30 00:32S 02°23' W 044°17'0 0.0
2017-Mar-29 23:32S 02°23' W 044°17'0 0.0
2017-Mar-29 22:32S 02°23' W 044°17'0 0.0
2017-Mar-29 21:32S 02°23' W 044°17'0 0.0
2017-Mar-29 20:32S 02°23' W 044°17'0 0.0
2017-Mar-29 19:32S 02°23' W 044°17'0 0.1
2017-Mar-29 18:32S 02°23' W 044°17'0 0.3
2017-Mar-29 17:32S 02°23' W 044°17'0 0.0
2017-Mar-29 16:32S 02°23' W 044°17'0 0.0
2017-Mar-29 15:32S 02°23' W 044°17'0 0.0
2017-Mar-29 14:32S 02°23' W 044°17'0 0.0
2017-Mar-29 13:32S 02°23' W 044°17'0 0.2
2017-Mar-29 12:32S 02°23' W 044°17'0 0.2
2017-Mar-29 11:32S 02°23' W 044°17'0 0.0
2017-Mar-29 10:24S 02°23' W 044°17'0 0.0
2017-Mar-29 09:24S 02°23' W 044°17'0 0.0
2017-Mar-29 08:32S 02°23' W 044°17'0 0.0
2017-Mar-29 07:32S 02°23' W 044°17'0 0.0
2017-Mar-29 06:32S 02°23' W 044°17'0 0.3
2017-Mar-29 05:32S 02°23' W 044°17'0 0.1
2017-Mar-29 04:32S 02°23' W 044°17'0 0.0
2017-Mar-29 03:32S 02°23' W 044°17'0 0.0
2017-Mar-29 02:32S 02°23' W 044°17'0 0.0
2017-Mar-29 01:32S 02°23' W 044°17'0 0.3
2017-Mar-29 00:32S 02°23' W 044°17'0 0.1
2017-Mar-28 23:32S 02°23' W 044°17'0 0.0
2017-Mar-28 22:32S 02°23' W 044°17'0 0.0
2017-Mar-28 21:32S 02°23' W 044°17'0 0.0
2017-Mar-28 20:32S 02°23' W 044°17'0 0.0
2017-Mar-28 19:32S 02°23' W 044°17'0 0.0
2017-Mar-28 18:32S 02°23' W 044°17'0 0.1
2017-Mar-28 17:32S 02°23' W 044°17'0 0.3
2017-Mar-28 16:32S 02°23' W 044°17'0 0.0
2017-Mar-28 15:32S 02°23' W 044°17'0 0.0
2017-Mar-28 14:32S 02°23' W 044°17'0 0.0
2017-Mar-28 13:32S 02°23' W 044°17'0 0.0
2017-Mar-28 12:32S 02°23' W 044°17'0 0.3
2017-Mar-28 11:32S 02°23' W 044°17'0 0.1
2017-Mar-28 10:32S 02°23' W 044°17'0 0.0
2017-Mar-28 09:32S 02°23' W 044°17'0 0.0
2017-Mar-28 08:32S 02°23' W 044°17'0 0.0
2017-Mar-28 07:32S 02°23' W 044°17'0 0.0
2017-Mar-28 06:29S 02°23' W 044°17'0 0.0
2017-Mar-28 05:32S 02°23' W 044°17'0 0.3
2017-Mar-28 04:32S 02°23' W 044°17'0 0.0
2017-Mar-28 03:32S 02°23' W 044°17'0 0.0
2017-Mar-28 02:32S 02°23' W 044°17'0 0.0
2017-Mar-28 01:32S 02°23' W 044°17'0 0.0
2017-Mar-28 00:32S 02°23' W 044°17'0 0.2
2017-Mar-27 23:32S 02°23' W 044°17'0 0.2
2017-Mar-27 22:32S 02°23' W 044°17'0 0.0
2017-Mar-27 21:32S 02°23' W 044°17'0 0.0
2017-Mar-27 20:32S 02°23' W 044°17'0 0.0
2017-Mar-27 19:32S 02°23' W 044°17'0 0.0
2017-Mar-27 18:32S 02°23' W 044°17'0 0.1
2017-Mar-27 17:32S 02°23' W 044°17'0 0.2
2017-Mar-27 16:32S 02°23' W 044°17'0 0.1
2017-Mar-27 15:32S 02°23' W 044°17'0 0.0
2017-Mar-27 14:32S 02°23' W 044°17'0 0.0
2017-Mar-27 13:32S 02°23' W 044°17'0 0.0
2017-Mar-27 12:32S 02°23' W 044°17'0 0.1
2017-Mar-27 11:32S 02°23' W 044°17'0 0.3
2017-Mar-27 10:32S 02°23' W 044°17'0 0.0
2017-Mar-27 09:32S 02°23' W 044°17'0 0.0
2017-Mar-27 08:32S 02°23' W 044°17'0 0.0
2017-Mar-27 07:32S 02°23' W 044°17'0 0.0
2017-Mar-27 06:32S 02°23' W 044°17'0 0.0
2017-Mar-27 05:32S 02°23' W 044°17'0 0.1
2017-Mar-27 04:32S 02°23' W 044°17'0 0.3
2017-Mar-27 03:32S 02°23' W 044°17'0 0.0
2017-Mar-27 02:32S 02°23' W 044°17'0 0.0
2017-Mar-27 01:32S 02°23' W 044°17'0 0.0
2017-Mar-27 00:32S 02°23' W 044°17'0 0.0
2017-Mar-26 23:32S 02°23' W 044°17'0 0.3
2017-Mar-26 22:26S 02°23' W 044°17'0 0.1
2017-Mar-26 21:32S 02°23' W 044°17'0 0.0
2017-Mar-26 20:32S 02°23' W 044°17'0 0.0
2017-Mar-26 19:32S 02°23' W 044°17'0 0.0
2017-Mar-26 18:32S 02°23' W 044°17'0 0.0
2017-Mar-26 17:29S 02°23' W 044°17'0 0.0
2017-Mar-26 16:32S 02°23' W 044°17'0 0.3
2017-Mar-26 15:32S 02°23' W 044°17'0 0.1
2017-Mar-26 14:32S 02°23' W 044°17'0 0.0
2017-Mar-26 13:32S 02°23' W 044°17'0 0.0
2017-Mar-26 12:32S 02°23' W 044°17'0 0.0
2017-Mar-26 11:32S 02°23' W 044°17'0 0.3
2017-Mar-26 10:32S 02°23' W 044°17'0 0.1
2017-Mar-26 09:32S 02°23' W 044°17'0 0.0
2017-Mar-26 08:32S 02°23' W 044°17'0 0.0
2017-Mar-26 07:33S 02°23' W 044°17'0 0.0
2017-Mar-26 06:32S 02°23' W 044°17'0 0.0
2017-Mar-26 05:32S 02°23' W 044°17'0 0.1
2017-Mar-26 04:32S 02°23' W 044°17'0 0.3
2017-Mar-26 03:32S 02°23' W 044°17'0 0.1
2017-Mar-26 02:32S 02°23' W 044°17'0 0.0
2017-Mar-26 01:32S 02°23' W 044°17'0 0.0
2017-Mar-26 00:32S 02°23' W 044°17'0 0.0
2017-Mar-25 23:32S 02°23' W 044°17'0 0.1
2017-Mar-25 22:32S 02°23' W 044°17'0 0.2
2017-Mar-25 21:32S 02°23' W 044°17'0 0.0
2017-Mar-25 20:32S 02°23' W 044°17'0 0.0
2017-Mar-25 19:32S 02°23' W 044°17'0 0.0
2017-Mar-25 18:32S 02°23' W 044°17'0 0.0
2017-Mar-25 17:32S 02°23' W 044°17'0 0.0
2017-Mar-25 16:32S 02°23' W 044°17'2 2.1
2017-Mar-25 15:33S 02°21' W 044°17'8 7.8
2017-Mar-25 14:33S 02°15' W 044°13'10 9.7
2017-Mar-25 13:33S 02°07' W 044°08'9 9.4
2017-Mar-25 12:33S 02°01' W 044°00'  

Dump ship's entire track history